Time;durP1;ratioP1;P1;durP2;ratioP2;P2;SDS_P1;SDS_P2;PMS_P1;PMS_P2;Temp;Humidity;BMP_temperature;BMP_pressure;BME280_temperature;BME280_humidity;BME280_pressure;Samples;Min_cycle;Max_cycle;Signal;HPM_P1;HPM_P2
2021/07/06 00:00:24;;;;;;;4.07;3.77;;;17.00;99.90;;;;;;6127746;23;20929;-84
2021/07/06 00:02:51;;;;;;;6.97;3.80;;;17.00;99.90;;;;;;6126892;23;20419;-84
2021/07/06 00:05:20;;;;;;;3.23;3.03;;;17.00;99.90;;;;;;6127145;23;20465;-84
2021/07/06 00:07:47;;;;;;;3.47;3.23;;;17.00;99.90;;;;;;6127359;23;20442;-83
2021/07/06 00:10:15;;;;;;;4.30;4.00;;;17.00;99.90;;;;;;6126594;23;20452;-84
2021/07/06 00:12:42;;;;;;;3.90;3.60;;;16.90;99.90;;;;;;6126992;23;20420;-83
2021/07/06 00:15:14;;;;;;;4.03;3.60;;;16.90;99.90;;;;;;6126471;23;20924;-84
2021/07/06 00:17:41;;;;;;;3.30;3.10;;;16.90;99.90;;;;;;6127004;23;20393;-84
2021/07/06 00:20:10;;;;;;;4.43;4.03;;;16.90;99.90;;;;;;6126696;23;20430;-83
2021/07/06 00:22:37;;;;;;;4.20;3.80;;;16.90;99.90;;;;;;6126603;23;20421;-84
2021/07/06 00:25:05;;;;;;;4.90;3.80;;;16.90;99.90;;;;;;6127004;23;20420;-84
2021/07/06 00:27:32;;;;;;;3.60;3.40;;;16.90;99.90;;;;;;6127385;23;20408;-84
2021/07/06 00:29:58;;;;;;;3.70;3.10;;;16.80;99.90;;;;;;6127173;23;20439;-83
2021/07/06 00:32:26;;;;;;;3.43;3.23;;;16.80;99.90;;;;;;6126653;23;20419;-83
2021/07/06 00:34:53;;;;;;;3.00;2.80;;;16.80;99.90;;;;;;6126526;23;20412;-84
2021/07/06 00:37:20;;;;;;;4.17;3.77;;;16.80;99.90;;;;;;6126558;23;20899;-83
2021/07/06 00:39:46;;;;;;;3.27;3.07;;;16.80;99.90;;;;;;6126572;23;20426;-84
2021/07/06 00:42:13;;;;;;;3.83;3.50;;;16.70;99.90;;;;;;6126871;23;20417;-84
2021/07/06 00:44:40;;;;;;;3.50;3.20;;;16.70;99.90;;;;;;6127588;23;20436;-84
2021/07/06 00:47:08;;;;;;;4.17;3.33;;;16.70;99.90;;;;;;6127218;23;20416;-84
2021/07/06 00:49:36;;;;;;;3.47;3.20;;;16.70;99.90;;;;;;6127113;23;20457;-84
2021/07/06 00:52:04;;;;;;;4.63;3.67;;;16.70;99.90;;;;;;6127275;23;20423;-84
2021/07/06 00:54:30;;;;;;;4.13;3.80;;;16.60;99.90;;;;;;6127436;23;20411;-84
2021/07/06 00:56:57;;;;;;;4.03;3.63;;;16.60;99.90;;;;;;6128044;23;20409;-83
2021/07/06 00:59:24;;;;;;;4.73;4.13;;;16.60;99.90;;;;;;6126873;23;20780;-84
2021/07/06 01:01:51;;;;;;;3.97;3.67;;;16.60;99.90;;;;;;6126361;23;20418;-83
2021/07/06 01:04:19;;;;;;;6.07;4.43;;;16.60;99.90;;;;;;6127354;23;20419;-84
2021/07/06 01:06:47;;;;;;;5.00;4.40;;;16.50;99.90;;;;;;6126820;23;20419;-84
2021/07/06 01:09:13;;;;;;;4.57;4.17;;;16.50;99.90;;;;;;6126515;23;20775;-84
2021/07/06 01:11:40;;;;;;;4.53;4.13;;;16.50;99.90;;;;;;6126255;23;20412;-84
2021/07/06 01:14:07;;;;;;;4.80;4.50;;;16.50;99.90;;;;;;6126612;23;20407;-84
2021/07/06 01:16:34;;;;;;;4.97;4.57;;;16.50;99.90;;;;;;6126394;23;20408;-84
2021/07/06 01:19:00;;;;;;;5.20;4.40;;;16.50;99.90;;;;;;6125969;23;20970;-84
2021/07/06 01:21:27;;;;;;;5.60;4.93;;;16.40;99.90;;;;;;6126435;23;20463;-84
2021/07/06 01:23:55;;;;;;;4.83;4.27;;;16.40;99.90;;;;;;6126387;23;20412;-84
2021/07/06 01:26:22;;;;;;;4.80;4.40;;;16.40;99.90;;;;;;6126219;23;20409;-84
2021/07/06 01:28:51;;;;;;;5.60;5.10;;;16.40;99.90;;;;;;6126448;23;20449;-84
2021/07/06 01:31:19;;;;;;;4.90;4.50;;;16.40;99.90;;;;;;6127244;23;20416;-84
2021/07/06 01:33:46;;;;;;;4.93;4.50;;;16.50;99.90;;;;;;6126946;23;20413;-84
2021/07/06 01:36:14;;;;;;;4.70;4.27;;;16.50;99.90;;;;;;6127187;23;20407;-83
2021/07/06 01:38:42;;;;;;;5.20;4.07;;;16.40;99.90;;;;;;6127105;23;20405;-84
2021/07/06 01:41:10;;;;;;;4.70;4.20;;;16.50;99.90;;;;;;6126667;23;20895;-84
2021/07/06 01:43:37;;;;;;;5.53;4.53;;;16.50;99.90;;;;;;6127372;23;20421;-83
2021/07/06 01:46:03;;;;;;;4.40;4.00;;;16.50;99.90;;;;;;6127226;23;20413;-84
2021/07/06 01:48:30;;;;;;;4.17;3.77;;;16.50;99.90;;;;;;6126883;23;20927;-84
2021/07/06 01:50:58;;;;;;;5.20;4.33;;;16.40;99.90;;;;;;6126518;23;20440;-84
2021/07/06 01:53:25;;;;;;;3.90;3.60;;;16.40;99.90;;;;;;6126128;23;20998;-84
2021/07/06 01:55:53;;;;;;;4.07;3.77;;;16.40;99.90;;;;;;6126362;23;20414;-84
2021/07/06 01:58:23;;;;;;;4.87;4.47;;;16.40;99.90;;;;;;6126485;23;20739;-84
2021/07/06 02:00:51;;;;;;;5.67;4.30;;;16.30;99.90;;;;;;6126229;23;20443;-84
2021/07/06 02:03:18;;;;;;;4.00;3.70;;;16.30;99.90;;;;;;6126071;23;20408;-84
2021/07/06 02:05:47;;;;;;;4.90;4.50;;;16.30;99.90;;;;;;6126350;23;20504;-84
2021/07/06 02:08:17;;;;;;;6.30;4.67;;;16.30;99.90;;;;;;6126316;23;20903;-84
2021/07/06 02:10:46;;;;;;;4.20;3.90;;;16.30;99.90;;;;;;6126280;23;20447;-84
2021/07/06 02:13:16;;;;;;;5.00;4.60;;;16.30;99.90;;;;;;6126807;23;20731;-84
2021/07/06 02:15:44;;;;;;;4.27;3.90;;;16.20;99.90;;;;;;6128497;23;20423;-83
2021/07/06 02:18:15;;;;;;;4.13;3.83;;;16.20;99.90;;;;;;6128348;23;20783;-83
2021/07/06 02:20:42;;;;;;;4.03;3.73;;;16.20;99.90;;;;;;6128433;23;20435;-84
2021/07/06 02:23:09;;;;;;;4.80;4.40;;;16.20;99.90;;;;;;6127931;23;20416;-83
2021/07/06 02:25:35;;;;;;;4.30;4.00;;;16.10;99.90;;;;;;6128208;23;20907;-84
2021/07/06 02:28:02;;;;;;;4.73;4.33;;;16.10;99.90;;;;;;6128387;23;20420;-84
2021/07/06 02:30:29;;;;;;;3.63;3.43;;;16.10;99.90;;;;;;6127361;23;20474;-84
2021/07/06 02:32:57;;;;;;;4.27;3.97;;;16.10;99.90;;;;;;6126261;23;20411;-84
2021/07/06 02:35:27;;;;;;;5.70;4.20;;;16.10;99.90;;;;;;6128096;23;20407;-83
2021/07/06 02:37:54;;;;;;;5.10;4.33;;;16.00;99.90;;;;;;6128662;23;20496;-84
2021/07/06 02:40:21;;;;;;;4.53;4.13;;;16.00;99.90;;;;;;6128433;23;20428;-83
2021/07/06 02:42:48;;;;;;;4.17;3.83;;;16.00;99.90;;;;;;6127983;23;20418;-84
2021/07/06 02:45:17;;;;;;;4.60;4.20;;;16.00;99.90;;;;;;6128522;23;20411;-83
2021/07/06 02:47:44;;;;;;;5.47;5.07;;;16.00;99.90;;;;;;6127893;23;20483;-84
2021/07/06 02:50:13;;;;;;;4.83;4.20;;;16.00;99.90;;;;;;6127970;23;20448;-84
2021/07/06 02:52:40;;;;;;;4.57;4.17;;;16.00;99.90;;;;;;6127495;23;20922;-83
2021/07/06 02:55:09;;;;;;;5.33;4.83;;;16.00;99.90;;;;;;6127857;23;20418;-83
2021/07/06 02:57:36;;;;;;;4.20;3.80;;;16.00;99.90;;;;;;6128738;23;20438;-83
2021/07/06 03:00:11;;;;;;;4.80;4.50;;;15.90;99.90;;;;;;6128050;23;20451;-84
2021/07/06 03:02:40;;;;;;;6.23;4.33;;;15.90;99.90;;;;;;6127576;23;20401;-84
2021/07/06 03:05:08;;;;;;;4.33;4.00;;;15.90;99.90;;;;;;6127702;23;20416;-84
2021/07/06 03:07:38;;;;;;;6.10;4.93;;;15.90;99.90;;;;;;6128035;23;20491;-83
2021/07/06 03:10:06;;;;;;;5.00;4.60;;;15.90;99.90;;;;;;6127207;23;20452;-84
2021/07/06 03:12:33;;;;;;;4.93;4.60;;;15.90;99.90;;;;;;6127699;23;20416;-84
2021/07/06 03:14:59;;;;;;;5.40;4.90;;;15.90;99.90;;;;;;6127463;23;20413;-84
2021/07/06 03:17:26;;;;;;;4.30;3.90;;;15.90;99.90;;;;;;6128023;23;20412;-83
2021/07/06 03:19:53;;;;;;;6.00;5.50;;;15.90;99.90;;;;;;6128118;23;20453;-83
2021/07/06 03:22:20;;;;;;;4.87;4.47;;;15.90;99.90;;;;;;6127498;23;20899;-84
2021/07/06 03:24:48;;;;;;;5.23;4.90;;;15.90;99.90;;;;;;6127676;23;20415;-84
2021/07/06 03:27:14;;;;;;;5.07;4.77;;;15.90;99.90;;;;;;6127565;23;20414;-84
2021/07/06 03:29:41;;;;;;;6.00;5.03;;;15.90;99.90;;;;;;6127392;23;20552;-84
2021/07/06 03:32:10;;;;;;;4.50;4.10;;;15.90;99.90;;;;;;6126922;23;20416;-84
2021/07/06 03:34:36;;;;;;;4.43;4.13;;;15.80;99.90;;;;;;6127840;23;20413;-83
2021/07/06 03:37:03;;;;;;;7.80;4.83;;;15.80;99.90;;;;;;6127856;23;20418;-84
2021/07/06 03:39:30;;;;;;;5.87;5.40;;;15.80;99.90;;;;;;6126951;23;20429;-84
2021/07/06 03:41:58;;;;;;;4.60;4.20;;;15.90;99.90;;;;;;6127372;23;20416;-83
2021/07/06 03:44:25;;;;;;;5.03;4.63;;;15.90;99.90;;;;;;6126828;23;20930;-84
2021/07/06 03:46:51;;;;;;;5.10;4.70;;;15.90;99.90;;;;;;6127692;23;20407;-84
2021/07/06 03:49:18;;;;;;;6.17;5.60;;;15.90;99.90;;;;;;6127118;23;20774;-84
2021/07/06 03:51:45;;;;;;;6.30;5.70;;;15.90;99.90;;;;;;6127359;23;20419;-84
2021/07/06 03:54:12;;;;;;;5.57;5.17;;;15.90;99.90;;;;;;6127407;23;20412;-83
2021/07/06 03:56:38;;;;;;;5.97;5.47;;;15.90;99.90;;;;;;6127714;23;20409;-84
2021/07/06 03:59:07;;;;;;;5.50;5.00;;;15.90;99.90;;;;;;6127284;23;20429;-84
2021/07/06 04:01:34;;;;;;;7.60;5.87;;;15.90;99.90;;;;;;6127109;23;20420;-84
2021/07/06 04:04:01;;;;;;;6.03;5.50;;;16.00;99.90;;;;;;6127562;23;20413;-83
2021/07/06 04:06:28;;;;;;;6.30;5.70;;;16.00;99.90;;;;;;6127203;23;20407;-84
2021/07/06 04:08:54;;;;;;;5.70;5.30;;;16.00;99.90;;;;;;6126867;23;20413;-84
2021/07/06 04:11:21;;;;;;;5.27;4.87;;;16.10;99.90;;;;;;6126843;23;20394;-84
2021/07/06 04:13:48;;;;;;;5.27;4.87;;;16.10;99.90;;;;;;6127440;23;21074;-84
2021/07/06 04:16:16;;;;;;;5.80;5.30;;;16.20;99.90;;;;;;6127527;23;20415;-84
2021/07/06 04:18:44;;;;;;;5.60;5.20;;;16.20;99.90;;;;;;6127176;23;20408;-84
2021/07/06 04:21:10;;;;;;;5.53;5.03;;;16.20;99.90;;;;;;6127042;23;20905;-84
2021/07/06 04:23:38;;;;;;;5.40;5.00;;;16.30;99.90;;;;;;6126964;23;20404;-84
2021/07/06 04:26:05;;;;;;;6.17;5.20;;;16.30;99.90;;;;;;6126670;23;20413;-84
2021/07/06 04:28:32;;;;;;;5.80;5.20;;;16.30;99.90;;;;;;6127240;23;20409;-84
2021/07/06 04:31:00;;;;;;;5.30;4.93;;;16.40;99.90;;;;;;6126441;23;20774;-84
2021/07/06 04:33:28;;;;;;;5.63;5.20;;;16.40;99.90;;;;;;6126245;23;20927;-84
2021/07/06 04:35:55;;;;;;;5.57;4.93;;;16.40;99.90;;;;;;6126561;23;20411;-84
2021/07/06 04:38:22;;;;;;;5.30;4.80;;;16.50;99.90;;;;;;6126718;23;20442;-84
2021/07/06 04:40:48;;;;;;;4.40;4.00;;;16.50;99.90;;;;;;6126739;23;20428;-84
2021/07/06 04:43:15;;;;;;;4.80;4.30;;;16.60;99.90;;;;;;6126304;23;20418;-84
2021/07/06 04:45:42;;;;;;;4.70;4.30;;;16.60;99.90;;;;;;6126881;23;20874;-84
2021/07/06 04:48:10;;;;;;;7.60;4.90;;;16.70;99.90;;;;;;6126402;23;20425;-84
2021/07/06 04:50:39;;;;;;;4.90;4.47;;;16.70;99.90;;;;;;6126121;23;20452;-84
2021/07/06 04:53:06;;;;;;;5.60;3.93;;;16.80;99.90;;;;;;6126110;23;20421;-84
2021/07/06 04:55:35;;;;;;;4.30;3.90;;;16.90;99.90;;;;;;6126673;23;20416;-83
2021/07/06 04:58:02;;;;;;;5.33;4.93;;;17.00;99.90;;;;;;6126540;23;20417;-84
2021/07/06 05:00:28;;;;;;;4.43;4.03;;;17.10;99.90;;;;;;6125839;23;20436;-84
2021/07/06 05:02:55;;;;;;;3.93;3.57;;;17.20;99.90;;;;;;6125916;23;20422;-84
2021/07/06 05:05:22;;;;;;;3.93;3.50;;;17.30;99.90;;;;;;6126036;23;20905;-84
2021/07/06 05:07:52;;;;;;;4.40;4.00;;;17.40;99.90;;;;;;6126326;23;20417;-83
2021/07/06 05:10:26;;;;;;;4.30;4.00;;;17.60;99.90;;;;;;6129791;23;20458;-82
2021/07/06 05:12:57;;;;;;;4.77;4.10;;;17.70;99.90;;;;;;6135408;23;20717;-83
2021/07/06 05:15:24;;;;;;;5.13;4.40;;;17.80;99.90;;;;;;6137285;23;20431;-83
2021/07/06 05:17:57;;;;;;;3.57;3.27;;;17.90;99.90;;;;;;6137368;23;20439;-82
2021/07/06 05:20:28;;;;;;;4.07;3.60;;;17.90;99.90;;;;;;6137719;23;20425;-82
2021/07/06 05:23:21;;;;;;;4.90;4.50;;;17.90;99.90;;;;;;6144137;23;20433;-82
2021/07/06 05:25:54;;;;;;;3.70;2.70;;;17.90;99.90;;;;;;5990641;24;20431;-82
2021/07/06 05:28:28;;;;;;;5.17;4.17;;;18.00;99.90;;;;;;6087314;23;20826;-82
2021/07/06 05:31:01;;;;;;;3.30;3.00;;;18.00;99.90;;;;;;6136897;23;20458;-85
2021/07/06 05:33:32;;;;;;;10.53;3.70;;;18.00;99.90;;;;;;6137243;23;20764;-81
2021/07/06 05:36:06;;;;;;;4.10;3.80;;;18.00;99.90;;;;;;6137994;23;20391;-82
2021/07/06 05:38:37;;;;;;;3.40;3.10;;;18.00;99.90;;;;;;6137011;23;20407;-82
2021/07/06 05:41:06;;;;;;;3.00;2.80;;;18.10;99.90;;;;;;6137850;23;20438;-81
2021/07/06 05:43:41;;;;;;;5.83;3.60;;;18.10;99.90;;;;;;6136540;23;20418;-84
2021/07/06 05:46:08;;;;;;;3.47;3.17;;;18.20;99.90;;;;;;6137219;23;20409;-81
2021/07/06 05:48:35;;;;;;;3.07;2.77;;;18.20;99.90;;;;;;6137645;23;20423;-82
2021/07/06 05:51:02;;;;;;;3.63;3.33;;;18.30;99.90;;;;;;6136124;23;20453;-81
2021/07/06 05:53:29;;;;;;;6.73;3.70;;;18.40;99.90;;;;;;6136659;23;20417;-83
2021/07/06 05:55:57;;;;;;;4.90;3.80;;;18.50;99.90;;;;;;6136533;23;20418;-82
2021/07/06 05:58:24;;;;;;;3.80;2.90;;;18.60;99.90;;;;;;6137400;23;20410;-83
2021/07/06 06:00:51;;;;;;;4.43;3.40;;;18.70;99.90;;;;;;6137067;23;20426;-82
2021/07/06 06:03:17;;;;;;;3.63;3.37;;;18.80;99.90;;;;;;6137563;23;20936;-83
2021/07/06 06:05:44;;;;;;;3.57;3.17;;;18.90;99.90;;;;;;6136702;23;20418;-83
2021/07/06 06:08:13;;;;;;;3.50;2.90;;;18.90;99.90;;;;;;6135746;23;20414;-84
2021/07/06 06:10:40;;;;;;;3.03;2.83;;;19.10;99.90;;;;;;6139427;23;20438;-82
2021/07/06 06:13:09;;;;;;;3.90;3.03;;;19.10;99.90;;;;;;6141217;23;20507;-84
2021/07/06 06:15:35;;;;;;;2.67;2.47;;;19.30;99.90;;;;;;6136315;23;20894;-84
2021/07/06 06:18:02;;;;;;;2.20;2.00;;;19.30;99.90;;;;;;6135528;23;20415;-84
2021/07/06 06:20:29;;;;;;;2.30;2.10;;;19.50;99.90;;;;;;6136496;23;20527;-82
2021/07/06 06:22:56;;;;;;;2.20;2.00;;;19.60;99.90;;;;;;6136529;23;20418;-82
2021/07/06 06:25:23;;;;;;;1.73;1.63;;;19.70;99.90;;;;;;6136389;23;20406;-84
2021/07/06 06:27:49;;;;;;;1.60;1.50;;;19.90;99.90;;;;;;6136393;23;20738;-82
2021/07/06 06:30:19;;;;;;;1.80;1.70;;;20.00;99.90;;;;;;6135585;23;20447;-83
2021/07/06 06:32:46;;;;;;;2.07;1.97;;;20.20;99.90;;;;;;6132168;23;20847;-86
2021/07/06 06:35:13;;;;;;;1.70;1.60;;;20.30;99.90;;;;;;6137355;23;20479;-85
2021/07/06 06:37:42;;;;;;;3.23;3.03;;;20.40;99.90;;;;;;6137714;23;20416;-85
2021/07/06 06:40:11;;;;;;;1.77;1.50;;;20.60;99.90;;;;;;6137512;23;20419;-85
2021/07/06 06:42:39;;;;;;;3.07;1.50;;;20.80;99.90;;;;;;6139355;23;20403;-85
2021/07/06 06:45:07;;;;;;;1.60;1.50;;;20.90;99.90;;;;;;6140348;23;20419;-85
2021/07/06 06:47:36;;;;;;;1.23;1.13;;;21.00;99.90;;;;;;6139952;23;20440;-85
2021/07/06 06:50:04;;;;;;;2.03;1.70;;;21.10;99.90;;;;;;6141260;23;20490;-85
2021/07/06 06:52:34;;;;;;;2.00;1.53;;;21.20;99.90;;;;;;6137994;23;20424;-86
2021/07/06 06:57:50;;;;;;;1.40;1.30;;;21.30;99.90;;;;;;6082694;23;20400;-85
2021/07/06 07:00:22;;;;;;;2.23;1.57;;;21.50;99.90;;;;;;6142672;23;20432;-82
2021/07/06 07:03:11;;;;;;;2.50;1.97;;;21.60;99.90;;;;;;6143464;23;20396;-85
2021/07/06 07:05:40;;;;;;;1.67;1.57;;;21.70;99.90;;;;;;6137994;23;20492;-83
2021/07/06 07:08:06;;;;;;;2.30;1.60;;;21.80;99.90;;;;;;6139836;23;20437;-84
2021/07/06 07:10:34;;;;;;;1.57;1.47;;;22.10;99.90;;;;;;6140060;23;20453;-86
2021/07/06 07:13:01;;;;;;;2.30;2.13;;;22.20;99.90;;;;;;6136923;23;20437;-85
2021/07/06 07:15:28;;;;;;;2.37;1.80;;;22.40;99.90;;;;;;6128855;23;20436;-86
2021/07/06 07:18:03;;;;;;;2.10;1.90;;;22.70;99.90;;;;;;6127637;23;20415;-87
2021/07/06 07:39:44;;;;;;;1.90;1.67;;;23.90;99.90;;;;;;5780658;24;20441;-84
2021/07/06 07:42:11;;;;;;;1.50;1.40;;;24.10;99.90;;;;;;6054101;23;20418;-86
2021/07/06 07:44:41;;;;;;;1.90;1.77;;;24.20;99.90;;;;;;6120078;23;20450;-85
2021/07/06 07:47:08;;;;;;;1.80;1.70;;;24.30;99.90;;;;;;6137267;23;20422;-86
2021/07/06 07:49:35;;;;;;;3.30;1.57;;;24.30;99.60;;;;;;6141733;23;20430;-86
2021/07/06 07:52:05;;;;;;;1.70;1.47;;;24.50;99.90;;;;;;6146215;23;20456;-87
2021/07/06 08:57:04;;;;;;;;;;;;;;;;;;;;;
2021/07/06 09:03:25;;;;;;;1.63;1.53;;;26.20;96.40;;;;;;5912294;23;20438;-82
2021/07/06 09:32:45;;;;;;;;;;;;;;;;;;;;;
2021/07/06 09:35:42;;;;;;;;;;;;;;;;;;;;;
2021/07/06 09:38:15;;;;;;;1.70;1.60;;;26.00;95.80;;;;;;6084319;23;20454;-84
2021/07/06 09:40:58;;;;;;;5.23;2.83;;;24.80;98.00;;;;;;6120765;23;20417;-86
2021/07/06 09:46:45;;;;;;;1.73;1.63;;;23.30;99.90;;;;;;5910177;23;20426;-82
2021/07/06 09:49:16;;;;;;;2.07;1.90;;;22.90;99.90;;;;;;6104258;23;20436;-84
2021/07/06 09:51:44;;;;;;;2.83;1.40;;;22.40;99.90;;;;;;6101666;23;20438;-82
2021/07/06 09:54:11;;;;;;;2.00;1.20;;;22.10;99.90;;;;;;6102644;23;20418;-82
2021/07/06 09:56:42;;;;;;;3.50;1.37;;;22.00;99.90;;;;;;6102290;23;20427;-83
2021/07/06 09:59:15;;;;;;;1.10;1.10;;;22.00;99.90;;;;;;6103014;23;20435;-82
2021/07/06 10:01:53;;;;;;;2.33;1.20;;;22.10;99.90;;;;;;6102663;23;20449;-83
2021/07/06 10:04:21;;;;;;;0.80;0.80;;;22.20;99.90;;;;;;6103316;23;20404;-83
2021/07/06 10:06:50;;;;;;;0.83;0.83;;;22.40;99.90;;;;;;6101199;23;20496;-82
2021/07/06 10:09:17;;;;;;;0.60;0.60;;;22.40;99.90;;;;;;6102540;23;20410;-82
2021/07/06 10:11:44;;;;;;;2.13;1.30;;;22.60;99.90;;;;;;6101837;23;20461;-82
2021/07/06 10:14:11;;;;;;;1.00;0.90;;;22.70;99.90;;;;;;6102864;23;20425;-82
2021/07/06 10:16:39;;;;;;;0.70;0.70;;;22.80;99.90;;;;;;6101342;23;20738;-82
2021/07/06 10:19:07;;;;;;;2.30;1.03;;;22.80;99.90;;;;;;6120964;23;20426;-81
2021/07/06 10:21:34;;;;;;;0.73;0.73;;;22.90;99.90;;;;;;6103195;23;20495;-82
2021/07/06 10:24:04;;;;;;;0.83;0.83;;;23.00;99.90;;;;;;6102043;23;20413;-82
2021/07/06 10:26:34;;;;;;;2.40;0.83;;;23.10;99.90;;;;;;6102031;23;20490;-82
2021/07/06 10:29:02;;;;;;;1.03;1.03;;;23.20;99.90;;;;;;6103014;23;20442;-82
2021/07/06 10:31:30;;;;;;;1.40;1.30;;;23.30;99.90;;;;;;6102846;23;20660;-82
2021/07/06 10:33:58;;;;;;;1.30;0.80;;;23.40;99.90;;;;;;6105474;23;20427;-85
2021/07/06 10:36:42;;;;;;;1.53;0.70;;;23.40;99.90;;;;;;6105650;23;20418;-82
2021/07/06 10:39:10;;;;;;;0.80;0.80;;;23.50;99.80;;;;;;6104320;23;20428;-82
2021/07/06 10:41:58;;;;;;;0.73;0.73;;;23.50;99.70;;;;;;6105231;23;20474;-82
2021/07/06 10:44:33;;;;;;;0.63;0.60;;;23.50;99.90;;;;;;6106179;23;20403;-83
2021/07/06 10:47:00;;;;;;;1.83;1.00;;;23.50;99.90;;;;;;6107173;23;20397;-86
2021/07/06 10:49:34;;;;;;;0.50;0.40;;;23.50;99.80;;;;;;6108162;23;20435;-83
2021/07/06 10:52:02;;;;;;;1.00;0.70;;;23.30;99.60;;;;;;6114857;23;20492;-80
2021/07/06 10:57:26;;;;;;;0.77;0.70;;;23.00;99.90;;;;;;6120985;23;20403;-85
2021/07/06 10:59:56;;;;;;;1.03;0.80;;;23.10;99.90;;;;;;6123366;23;20435;-84
2021/07/06 11:02:25;;;;;;;0.60;0.60;;;23.20;99.90;;;;;;6122455;23;20408;-83
2021/07/06 11:05:08;;;;;;;0.50;0.50;;;23.20;99.90;;;;;;6123060;23;20470;-82
2021/07/06 11:07:51;;;;;;;0.77;0.77;;;23.30;99.90;;;;;;6123829;23;20417;-82
2021/07/06 11:18:46;;;;;;;2.43;1.90;;;23.40;99.90;;;;;;6139338;23;20465;-82
2021/07/06 11:24:42;;;;;;;0.50;0.43;;;23.90;99.90;;;;;;6086793;23;20390;-85
2021/07/06 11:27:19;;;;;;;0.50;0.50;;;24.20;99.80;;;;;;6082473;23;20416;-85
2021/07/06 12:08:40;;;;;;;0.80;0.80;;;23.80;99.90;;;;;;6086496;23;20424;-82
2021/07/06 12:19:09;;;;;;;0.40;0.40;;;24.20;99.90;;;;;;5957743;24;20401;-86
2021/07/06 12:41:43;;;;;;;1.40;0.50;;;25.30;98.60;;;;;;5822912;24;20445;-85
2021/07/06 12:44:52;;;;;;;0.57;0.50;;;25.40;98.00;;;;;;5947706;23;20422;-84
2021/07/06 12:54:34;;;;;;;;;;;;;;;;;;;;;
2021/07/06 13:06:44;;;;;;;0.90;0.90;;;25.50;98.10;;;;;;5817060;24;20432;-86
2021/07/06 13:25:03;;;;;;;1.50;1.40;;;24.80;98.80;;;;;;5954686;24;20440;-85
2021/07/06 13:34:30;;;;;;;1.07;1.07;;;25.10;99.60;;;;;;5877205;23;20418;-85
2021/07/06 13:37:14;;;;;;;1.80;1.70;;;25.30;99.00;;;;;;6053977;23;20416;-85
2021/07/06 13:39:47;;;;;;;1.23;1.20;;;25.40;98.40;;;;;;6130075;23;20761;-86
2021/07/06 14:15:01;;;;;;;1.70;1.60;;;25.90;98.40;;;;;;6127355;23;21008;-85
2021/07/06 14:17:33;;;;;;;3.17;1.50;;;26.00;97.60;;;;;;6131130;23;20446;-84
2021/07/06 14:20:05;;;;;;;1.53;1.40;;;26.10;97.40;;;;;;6131073;23;20436;-84
2021/07/06 14:28:22;;;;;;;1.33;1.23;;;25.50;96.90;;;;;;6069931;23;20442;-85
2021/07/06 14:31:41;;;;;;;1.50;1.40;;;25.50;97.50;;;;;;6068264;23;20882;-87
2021/07/06 14:41:49;;;;;;;1.47;1.07;;;25.10;98.80;;;;;;5923749;24;20760;-88
2021/07/06 14:44:42;;;;;;;1.13;1.10;;;24.70;99.40;;;;;;5925238;24;20474;-85
2021/07/06 15:01:48;;;;;;;4.23;4.03;;;24.10;99.90;;;;;;6114097;23;20470;-84
2021/07/06 15:30:19;;;;;;;2.70;2.50;;;23.50;99.90;;;;;;5655047;25;20502;-87
2021/07/06 15:32:57;;;;;;;3.40;3.13;;;23.30;99.90;;;;;;5871197;24;20460;-86
2021/07/06 15:35:43;;;;;;;3.73;2.20;;;23.20;99.90;;;;;;5943488;24;20462;-86
2021/07/06 15:38:35;;;;;;;4.20;3.67;;;22.90;99.90;;;;;;6079814;23;20444;-87
2021/07/06 15:47:47;;;;;;;3.73;3.53;;;22.60;99.90;;;;;;6104622;23;20489;-88
2021/07/06 16:04:35;;;;;;;3.13;2.93;;;22.40;99.90;;;;;;5886451;24;20425;-84
2021/07/06 16:19:28;;;;;;;2.27;2.10;;;22.00;99.90;;;;;;6068736;23;20428;-90
2021/07/06 16:44:08;;;;;;;2.37;2.27;;;21.60;99.90;;;;;;6071958;23;20426;-87
2021/07/06 17:58:30;;;;;;;1.50;1.40;;;19.60;99.90;;;;;;6041777;23;20389;-86
2021/07/06 18:01:03;;;;;;;2.17;1.93;;;19.60;99.90;;;;;;6044349;23;20444;-86
2021/07/06 18:03:32;;;;;;;1.53;1.43;;;19.60;99.90;;;;;;6044968;23;20854;-86
2021/07/06 18:06:03;;;;;;;2.23;2.13;;;19.60;99.90;;;;;;6043581;23;20417;-86
2021/07/06 18:08:37;;;;;;;2.43;2.20;;;19.70;99.90;;;;;;6042277;23;20398;-86
2021/07/06 18:11:09;;;;;;;2.00;1.90;;;19.80;99.90;;;;;;6045561;23;20422;-86
2021/07/06 18:13:38;;;;;;;1.43;1.33;;;19.80;99.90;;;;;;6041591;23;20505;-86
2021/07/06 18:16:29;;;;;;;1.60;1.50;;;19.80;99.90;;;;;;6042086;23;20424;-86
2021/07/06 18:19:34;;;;;;;;;;;;;;;;;;;;;
2021/07/06 18:22:53;;;;;;;;;;;;;;;;;;;;;
2021/07/06 18:26:21;;;;;;;;;;;;;;;;;;;;;
2021/07/06 18:29:39;;;;;;;2.50;2.30;;;19.80;99.90;;;;;;6055563;23;20401;-88
2021/07/06 18:32:14;;;;;;;2.27;2.10;;;19.70;99.90;;;;;;6032667;23;20449;-85
2021/07/06 18:35:03;;;;;;;2.70;2.60;;;19.60;99.90;;;;;;6046069;23;20399;-85
2021/07/06 18:37:56;;;;;;;1.73;1.63;;;19.60;99.90;;;;;;6041456;23;20517;-87
2021/07/06 18:47:05;;;;;;;3.60;2.53;;;19.30;99.90;;;;;;6038660;23;20473;-87
2021/07/06 18:49:53;;;;;;;2.93;2.73;;;19.20;99.90;;;;;;6044679;23;20452;-86
2021/07/06 18:55:57;;;;;;;3.83;3.53;;;19.10;99.90;;;;;;5967176;23;20477;-86
2021/07/06 18:58:44;;;;;;;3.10;2.90;;;19.00;99.90;;;;;;6046890;23;20437;-87
2021/07/06 19:20:30;;;;;;;4.10;3.70;;;19.00;99.90;;;;;;6036919;23;20860;-87
2021/07/06 19:23:16;;;;;;;3.67;3.37;;;19.00;99.90;;;;;;6046558;23;20426;-85
2021/07/06 19:25:54;;;;;;;2.93;2.70;;;19.00;99.90;;;;;;6052943;23;20418;-86
2021/07/06 19:31:16;;;;;;;3.40;3.20;;;19.00;99.90;;;;;;6049103;23;20501;-87
2021/07/06 19:33:52;;;;;;;3.10;2.70;;;19.00;99.90;;;;;;6048596;23;21017;-86
2021/07/06 19:39:30;;;;;;;4.40;3.40;;;18.90;99.90;;;;;;6006452;23;20426;-85
2021/07/06 19:42:22;;;;;;;5.10;4.57;;;18.80;99.90;;;;;;6045031;23;20421;-84
2021/07/06 19:44:53;;;;;;;2.57;2.37;;;18.70;99.90;;;;;;6045501;23;20397;-85
2021/07/06 19:47:35;;;;;;;2.70;2.40;;;18.60;99.90;;;;;;6045356;23;20453;-83
2021/07/06 19:50:24;;;;;;;2.03;1.93;;;18.60;99.90;;;;;;6046536;23;20433;-84
2021/07/06 19:52:51;;;;;;;3.77;2.50;;;18.60;99.90;;;;;;6045445;23;20440;-83
2021/07/06 19:55:19;;;;;;;1.70;1.60;;;18.50;99.90;;;;;;6045672;23;20748;-83
2021/07/06 19:57:46;;;;;;;2.00;1.83;;;18.40;99.90;;;;;;6044635;23;20427;-84
2021/07/06 20:00:13;;;;;;;2.53;2.17;;;18.40;99.90;;;;;;6045499;23;20816;-84
2021/07/06 20:02:41;;;;;;;2.57;2.37;;;18.30;99.90;;;;;;6044668;23;20737;-84
2021/07/06 20:05:10;;;;;;;3.00;2.80;;;18.30;99.90;;;;;;6049978;23;20449;-82
2021/07/06 20:07:37;;;;;;;3.23;2.93;;;18.10;99.90;;;;;;6047814;23;20412;-82
2021/07/06 20:10:05;;;;;;;3.43;2.00;;;17.80;99.90;;;;;;6045339;23;20441;-83
2021/07/06 20:12:32;;;;;;;4.00;2.40;;;17.80;99.90;;;;;;6044438;23;20851;-83
2021/07/06 20:14:59;;;;;;;2.70;2.50;;;17.70;99.90;;;;;;6045759;23;20756;-83
2021/07/06 20:17:25;;;;;;;4.17;2.30;;;17.60;99.90;;;;;;6046367;23;20423;-83
2021/07/06 20:19:55;;;;;;;3.33;2.17;;;17.50;99.90;;;;;;6044946;23;20431;-83
2021/07/06 20:22:23;;;;;;;2.57;2.37;;;17.40;99.90;;;;;;6043759;23;20416;-83
2021/07/06 20:24:50;;;;;;;2.43;2.23;;;17.30;99.90;;;;;;6045240;23;20433;-84
2021/07/06 20:27:17;;;;;;;4.17;2.70;;;17.30;99.90;;;;;;6045736;23;20400;-83
2021/07/06 20:29:43;;;;;;;2.93;2.40;;;17.30;99.90;;;;;;6044916;23;20503;-84
2021/07/06 20:32:10;;;;;;;3.73;3.13;;;17.20;99.90;;;;;;6044720;23;20416;-84
2021/07/06 20:34:39;;;;;;;3.30;2.63;;;17.10;99.90;;;;;;6044539;23;20452;-83
2021/07/06 20:37:06;;;;;;;2.93;2.63;;;17.10;99.90;;;;;;6044561;23;20499;-83
2021/07/06 20:39:34;;;;;;;3.37;2.50;;;17.10;99.90;;;;;;6044795;23;20450;-83
2021/07/06 20:42:06;;;;;;;4.13;3.57;;;17.20;99.90;;;;;;6044565;23;20446;-83
2021/07/06 20:44:32;;;;;;;6.13;3.10;;;17.20;99.90;;;;;;6045194;23;20468;-84
2021/07/06 20:46:59;;;;;;;2.67;2.47;;;17.20;99.90;;;;;;6045139;23;20838;-84
2021/07/06 20:49:26;;;;;;;4.10;2.97;;;17.30;99.90;;;;;;6044675;23;20415;-84
2021/07/06 20:51:53;;;;;;;3.00;2.73;;;17.30;99.90;;;;;;6045075;23;20468;-84
2021/07/06 20:54:20;;;;;;;3.77;3.20;;;17.30;99.90;;;;;;6049703;23;20471;-83
2021/07/06 20:56:48;;;;;;;4.10;3.17;;;17.40;99.90;;;;;;6050812;23;20431;-84
2021/07/06 20:59:15;;;;;;;3.93;3.43;;;17.30;99.90;;;;;;6046760;23;20412;-82
2021/07/06 21:01:42;;;;;;;3.33;3.03;;;17.30;99.90;;;;;;6047131;23;20416;-84
2021/07/06 21:04:08;;;;;;;5.10;3.43;;;17.40;99.90;;;;;;6047845;23;20421;-84
2021/07/06 21:06:35;;;;;;;3.10;2.90;;;17.40;99.90;;;;;;6049655;23;20489;-83
2021/07/06 21:09:02;;;;;;;6.67;3.23;;;17.40;99.90;;;;;;6050906;23;20428;-83
2021/07/06 21:11:31;;;;;;;3.10;2.90;;;17.50;99.90;;;;;;6049026;23;20471;-84
2021/07/06 21:13:59;;;;;;;6.47;3.00;;;17.50;99.90;;;;;;6046981;23;20778;-84
2021/07/06 21:16:25;;;;;;;4.27;3.97;;;17.50;99.90;;;;;;6046395;23;20485;-83
2021/07/06 21:18:52;;;;;;;3.30;3.10;;;17.50;99.90;;;;;;6045904;23;20411;-85
2021/07/06 21:21:19;;;;;;;5.30;3.70;;;17.60;99.90;;;;;;6045238;23;20440;-83